sensor_id;sensor_type;location;lat;lon;timestamp;P1;durP1;ratioP1;P2;durP2;ratioP2
79365;SDS011;68833;53.160;17.920;2023-12-20T00:02:12;5.00;;;4.00;;
79365;SDS011;68833;53.160;17.920;2023-12-20T00:07:42;3.80;;;2.90;;
79365;SDS011;68833;53.160;17.920;2023-12-20T00:10:11;4.10;;;3.70;;
79365;SDS011;68833;53.160;17.920;2023-12-20T00:12:44;4.30;;;3.80;;
79365;SDS011;68833;53.160;17.920;2023-12-20T00:15:13;4.50;;;3.70;;
79365;SDS011;68833;53.160;17.920;2023-12-20T00:17:42;4.90;;;3.90;;
79365;SDS011;68833;53.160;17.920;2023-12-20T00:20:14;7.90;;;3.20;;
79365;SDS011;68833;53.160;17.920;2023-12-20T00:22:50;3.60;;;2.70;;
79365;SDS011;68833;53.160;17.920;2023-12-20T00:25:45;2.50;;;2.30;;
79365;SDS011;68833;53.160;17.920;2023-12-20T00:28:34;5.30;;;3.80;;
79365;SDS011;68833;53.160;17.920;2023-12-20T00:31:10;3.80;;;3.40;;
79365;SDS011;68833;53.160;17.920;2023-12-20T00:33:46;3.10;;;2.80;;
79365;SDS011;68833;53.160;17.920;2023-12-20T00:36:15;3.20;;;2.90;;
79365;SDS011;68833;53.160;17.920;2023-12-20T00:39:14;4.30;;;3.20;;
79365;SDS011;68833;53.160;17.920;2023-12-20T00:42:07;4.00;;;2.40;;
79365;SDS011;68833;53.160;17.920;2023-12-20T00:44:35;3.70;;;2.80;;
79365;SDS011;68833;53.160;17.920;2023-12-20T00:47:09;3.90;;;2.60;;
79365;SDS011;68833;53.160;17.920;2023-12-20T00:49:52;3.30;;;2.40;;
79365;SDS011;68833;53.160;17.920;2023-12-20T00:52:44;2.60;;;2.20;;
79365;SDS011;68833;53.160;17.920;2023-12-20T00:55:26;3.20;;;2.30;;
79365;SDS011;68833;53.160;17.920;2023-12-20T00:57:57;2.20;;;1.90;;
79365;SDS011;68833;53.160;17.920;2023-12-20T01:00:47;3.00;;;2.50;;
79365;SDS011;68833;53.160;17.920;2023-12-20T01:03:42;3.40;;;2.20;;
79365;SDS011;68833;53.160;17.920;2023-12-20T01:06:11;2.80;;;2.40;;
79365;SDS011;68833;53.160;17.920;2023-12-20T01:08:42;3.20;;;2.10;;
79365;SDS011;68833;53.160;17.920;2023-12-20T01:11:13;3.10;;;2.40;;
79365;SDS011;68833;53.160;17.920;2023-12-20T01:14:18;2.70;;;2.00;;
79365;SDS011;68833;53.160;17.920;2023-12-20T01:17:01;3.70;;;2.50;;
79365;SDS011;68833;53.160;17.920;2023-12-20T01:19:38;2.60;;;2.20;;
79365;SDS011;68833;53.160;17.920;2023-12-20T01:22:11;3.50;;;2.40;;
79365;SDS011;68833;53.160;17.920;2023-12-20T01:24:41;2.70;;;1.80;;
79365;SDS011;68833;53.160;17.920;2023-12-20T01:27:30;2.60;;;2.10;;
79365;SDS011;68833;53.160;17.920;2023-12-20T01:30:23;2.10;;;1.70;;
79365;SDS011;68833;53.160;17.920;2023-12-20T01:33:20;2.90;;;2.30;;
79365;SDS011;68833;53.160;17.920;2023-12-20T01:36:02;3.70;;;2.60;;
79365;SDS011;68833;53.160;17.920;2023-12-20T01:38:52;3.70;;;2.50;;
79365;SDS011;68833;53.160;17.920;2023-12-20T01:41:50;2.30;;;2.10;;
79365;SDS011;68833;53.160;17.920;2023-12-20T01:44:39;2.80;;;2.10;;
79365;SDS011;68833;53.160;17.920;2023-12-20T01:47:27;3.10;;;2.40;;
79365;SDS011;68833;53.160;17.920;2023-12-20T01:49:55;4.10;;;3.80;;
79365;SDS011;68833;53.160;17.920;2023-12-20T01:52:48;3.20;;;2.70;;
79365;SDS011;68833;53.160;17.920;2023-12-20T01:55:40;2.90;;;2.20;;
79365;SDS011;68833;53.160;17.920;2023-12-20T01:58:17;3.40;;;2.40;;
79365;SDS011;68833;53.160;17.920;2023-12-20T02:00:49;2.90;;;2.10;;
79365;SDS011;68833;53.160;17.920;2023-12-20T02:03:18;2.00;;;1.80;;
79365;SDS011;68833;53.160;17.920;2023-12-20T02:06:03;4.00;;;2.70;;
79365;SDS011;68833;53.160;17.920;2023-12-20T02:08:43;3.80;;;2.90;;
79365;SDS011;68833;53.160;17.920;2023-12-20T02:11:34;3.80;;;2.30;;
79365;SDS011;68833;53.160;17.920;2023-12-20T02:14:19;2.90;;;2.30;;
79365;SDS011;68833;53.160;17.920;2023-12-20T02:17:07;2.90;;;2.20;;
79365;SDS011;68833;53.160;17.920;2023-12-20T02:19:37;3.00;;;1.90;;
79365;SDS011;68833;53.160;17.920;2023-12-20T02:22:16;3.30;;;2.80;;
79365;SDS011;68833;53.160;17.920;2023-12-20T02:25:09;4.60;;;2.50;;
79365;SDS011;68833;53.160;17.920;2023-12-20T02:27:43;3.00;;;2.70;;
79365;SDS011;68833;53.160;17.920;2023-12-20T02:30:22;2.70;;;2.40;;
79365;SDS011;68833;53.160;17.920;2023-12-20T02:33:12;4.60;;;2.70;;
79365;SDS011;68833;53.160;17.920;2023-12-20T02:35:43;3.30;;;2.50;;
79365;SDS011;68833;53.160;17.920;2023-12-20T02:38:26;3.20;;;2.50;;
79365;SDS011;68833;53.160;17.920;2023-12-20T02:40:59;4.80;;;2.60;;
79365;SDS011;68833;53.160;17.920;2023-12-20T02:43:30;4.10;;;2.40;;
79365;SDS011;68833;53.160;17.920;2023-12-20T02:46:19;2.80;;;2.10;;
79365;SDS011;68833;53.160;17.920;2023-12-20T02:49:15;3.10;;;2.10;;
79365;SDS011;68833;53.160;17.920;2023-12-20T02:52:11;2.40;;;2.20;;
79365;SDS011;68833;53.160;17.920;2023-12-20T02:54:58;8.60;;;3.30;;
79365;SDS011;68833;53.160;17.920;2023-12-20T02:57:50;4.60;;;2.60;;
79365;SDS011;68833;53.160;17.920;2023-12-20T03:00:41;3.20;;;2.50;;
79365;SDS011;68833;53.160;17.920;2023-12-20T03:03:19;3.00;;;2.20;;
79365;SDS011;68833;53.160;17.920;2023-12-20T03:05:50;3.10;;;2.40;;
79365;SDS011;68833;53.160;17.920;2023-12-20T03:08:36;3.00;;;2.00;;
79365;SDS011;68833;53.160;17.920;2023-12-20T03:11:27;3.90;;;2.70;;
79365;SDS011;68833;53.160;17.920;2023-12-20T03:14:08;3.30;;;2.80;;
79365;SDS011;68833;53.160;17.920;2023-12-20T03:16:56;2.60;;;2.40;;
79365;SDS011;68833;53.160;17.920;2023-12-20T03:19:26;2.30;;;2.10;;
79365;SDS011;68833;53.160;17.920;2023-12-20T03:21:58;2.70;;;2.00;;
79365;SDS011;68833;53.160;17.920;2023-12-20T03:24:42;2.60;;;2.30;;
79365;SDS011;68833;53.160;17.920;2023-12-20T03:27:19;5.00;;;3.20;;
79365;SDS011;68833;53.160;17.920;2023-12-20T03:30:08;4.60;;;2.90;;
79365;SDS011;68833;53.160;17.920;2023-12-20T03:32:57;2.80;;;2.20;;
79365;SDS011;68833;53.160;17.920;2023-12-20T03:36:02;1.90;;;1.70;;
79365;SDS011;68833;53.160;17.920;2023-12-20T03:38:36;4.10;;;2.10;;
79365;SDS011;68833;53.160;17.920;2023-12-20T03:41:06;1.70;;;1.40;;
79365;SDS011;68833;53.160;17.920;2023-12-20T03:43:55;2.90;;;2.30;;
79365;SDS011;68833;53.160;17.920;2023-12-20T03:46:47;3.20;;;2.40;;
79365;SDS011;68833;53.160;17.920;2023-12-20T03:49:29;2.50;;;2.20;;
79365;SDS011;68833;53.160;17.920;2023-12-20T03:52:15;2.70;;;2.10;;
79365;SDS011;68833;53.160;17.920;2023-12-20T03:54:47;2.00;;;1.70;;
79365;SDS011;68833;53.160;17.920;2023-12-20T03:57:36;2.10;;;1.90;;
79365;SDS011;68833;53.160;17.920;2023-12-20T04:00:05;3.00;;;2.30;;
79365;SDS011;68833;53.160;17.920;2023-12-20T04:02:50;3.00;;;2.00;;
79365;SDS011;68833;53.160;17.920;2023-12-20T04:05:24;3.70;;;2.10;;
79365;SDS011;68833;53.160;17.920;2023-12-20T04:08:00;2.20;;;2.00;;
79365;SDS011;68833;53.160;17.920;2023-12-20T04:10:43;4.30;;;2.30;;
79365;SDS011;68833;53.160;17.920;2023-12-20T04:13:21;2.40;;;1.70;;
79365;SDS011;68833;53.160;17.920;2023-12-20T04:15:51;5.60;;;3.10;;
79365;SDS011;68833;53.160;17.920;2023-12-20T04:18:31;6.90;;;2.90;;
79365;SDS011;68833;53.160;17.920;2023-12-20T04:21:03;4.50;;;3.50;;
79365;SDS011;68833;53.160;17.920;2023-12-20T04:23:33;4.90;;;3.10;;
79365;SDS011;68833;53.160;17.920;2023-12-20T04:26:42;3.40;;;2.80;;
79365;SDS011;68833;53.160;17.920;2023-12-20T04:29:28;3.40;;;2.50;;
79365;SDS011;68833;53.160;17.920;2023-12-20T04:32:02;4.50;;;3.50;;
79365;SDS011;68833;53.160;17.920;2023-12-20T04:35:04;4.50;;;3.00;;
79365;SDS011;68833;53.160;17.920;2023-12-20T04:37:43;3.40;;;3.10;;
79365;SDS011;68833;53.160;17.920;2023-12-20T04:40:33;4.60;;;3.20;;
79365;SDS011;68833;53.160;17.920;2023-12-20T04:43:04;4.70;;;2.80;;
79365;SDS011;68833;53.160;17.920;2023-12-20T04:46:09;3.70;;;2.50;;
79365;SDS011;68833;53.160;17.920;2023-12-20T04:49:19;5.40;;;4.00;;
79365;SDS011;68833;53.160;17.920;2023-12-20T04:51:48;5.90;;;3.90;;
79365;SDS011;68833;53.160;17.920;2023-12-20T04:54:22;5.00;;;3.40;;
79365;SDS011;68833;53.160;17.920;2023-12-20T04:57:14;5.80;;;3.80;;
79365;SDS011;68833;53.160;17.920;2023-12-20T04:59:44;4.70;;;3.70;;
79365;SDS011;68833;53.160;17.920;2023-12-20T05:02:13;4.80;;;3.10;;
79365;SDS011;68833;53.160;17.920;2023-12-20T05:04:53;5.30;;;4.20;;
79365;SDS011;68833;53.160;17.920;2023-12-20T05:07:43;6.90;;;4.20;;
79365;SDS011;68833;53.160;17.920;2023-12-20T05:10:16;3.60;;;3.00;;
79365;SDS011;68833;53.160;17.920;2023-12-20T05:12:57;8.20;;;4.20;;
79365;SDS011;68833;53.160;17.920;2023-12-20T05:15:32;5.30;;;3.70;;
79365;SDS011;68833;53.160;17.920;2023-12-20T05:18:06;4.20;;;3.50;;
79365;SDS011;68833;53.160;17.920;2023-12-20T05:20:56;7.00;;;3.90;;
79365;SDS011;68833;53.160;17.920;2023-12-20T05:23:44;5.00;;;3.00;;
79365;SDS011;68833;53.160;17.920;2023-12-20T05:26:32;4.30;;;3.30;;
79365;SDS011;68833;53.160;17.920;2023-12-20T05:29:10;5.20;;;3.00;;
79365;SDS011;68833;53.160;17.920;2023-12-20T05:31:44;6.50;;;4.00;;
79365;SDS011;68833;53.160;17.920;2023-12-20T05:34:12;6.10;;;4.00;;
79365;SDS011;68833;53.160;17.920;2023-12-20T05:36:40;4.30;;;3.20;;
79365;SDS011;68833;53.160;17.920;2023-12-20T05:39:12;4.30;;;3.50;;
79365;SDS011;68833;53.160;17.920;2023-12-20T05:41:39;7.70;;;3.90;;
79365;SDS011;68833;53.160;17.920;2023-12-20T05:44:06;6.00;;;4.00;;
79365;SDS011;68833;53.160;17.920;2023-12-20T05:46:33;9.40;;;4.80;;
79365;SDS011;68833;53.160;17.920;2023-12-20T05:49:00;7.90;;;3.60;;
79365;SDS011;68833;53.160;17.920;2023-12-20T05:51:27;4.90;;;3.30;;
79365;SDS011;68833;53.160;17.920;2023-12-20T05:53:54;5.90;;;3.60;;
79365;SDS011;68833;53.160;17.920;2023-12-20T05:56:23;6.50;;;3.90;;
79365;SDS011;68833;53.160;17.920;2023-12-20T05:58:50;7.20;;;3.90;;
79365;SDS011;68833;53.160;17.920;2023-12-20T06:01:18;7.20;;;4.70;;
79365;SDS011;68833;53.160;17.920;2023-12-20T06:03:45;7.10;;;4.60;;
79365;SDS011;68833;53.160;17.920;2023-12-20T06:06:15;7.80;;;5.00;;
79365;SDS011;68833;53.160;17.920;2023-12-20T06:08:42;9.50;;;5.20;;
79365;SDS011;68833;53.160;17.920;2023-12-20T06:11:10;11.80;;;5.50;;
79365;SDS011;68833;53.160;17.920;2023-12-20T06:13:37;16.20;;;6.60;;
79365;SDS011;68833;53.160;17.920;2023-12-20T06:16:05;10.90;;;5.60;;
79365;SDS011;68833;53.160;17.920;2023-12-20T06:18:33;8.90;;;5.30;;
79365;SDS011;68833;53.160;17.920;2023-12-20T06:21:03;10.20;;;5.80;;
79365;SDS011;68833;53.160;17.920;2023-12-20T06:23:30;8.50;;;4.70;;
79365;SDS011;68833;53.160;17.920;2023-12-20T06:26:00;7.60;;;4.20;;
79365;SDS011;68833;53.160;17.920;2023-12-20T06:28:30;7.20;;;4.80;;
79365;SDS011;68833;53.160;17.920;2023-12-20T06:30:57;11.80;;;5.10;;
79365;SDS011;68833;53.160;17.920;2023-12-20T06:33:24;7.90;;;5.00;;
79365;SDS011;68833;53.160;17.920;2023-12-20T06:35:51;9.90;;;4.60;;
79365;SDS011;68833;53.160;17.920;2023-12-20T06:38:19;9.40;;;3.80;;
79365;SDS011;68833;53.160;17.920;2023-12-20T06:40:46;9.30;;;4.30;;
79365;SDS011;68833;53.160;17.920;2023-12-20T06:43:13;36.30;;;14.10;;
79365;SDS011;68833;53.160;17.920;2023-12-20T06:45:40;31.10;;;12.10;;
79365;SDS011;68833;53.160;17.920;2023-12-20T06:48:07;24.90;;;9.90;;
79365;SDS011;68833;53.160;17.920;2023-12-20T06:50:35;17.80;;;7.10;;
79365;SDS011;68833;53.160;17.920;2023-12-20T06:53:06;12.50;;;4.70;;
79365;SDS011;68833;53.160;17.920;2023-12-20T06:55:34;10.40;;;3.80;;
79365;SDS011;68833;53.160;17.920;2023-12-20T07:00:31;9.00;;;3.10;;
79365;SDS011;68833;53.160;17.920;2023-12-20T07:02:59;6.00;;;3.60;;
79365;SDS011;68833;53.160;17.920;2023-12-20T07:05:26;7.00;;;3.60;;
79365;SDS011;68833;53.160;17.920;2023-12-20T07:07:53;7.80;;;4.10;;
79365;SDS011;68833;53.160;17.920;2023-12-20T07:10:20;10.30;;;5.20;;
79365;SDS011;68833;53.160;17.920;2023-12-20T07:12:47;23.30;;;9.40;;
79365;SDS011;68833;53.160;17.920;2023-12-20T07:15:15;50.10;;;19.30;;
79365;SDS011;68833;53.160;17.920;2023-12-20T07:17:42;103.60;;;38.90;;
79365;SDS011;68833;53.160;17.920;2023-12-20T07:20:10;86.70;;;35.80;;
79365;SDS011;68833;53.160;17.920;2023-12-20T07:22:38;77.60;;;33.70;;
79365;SDS011;68833;53.160;17.920;2023-12-20T07:25:05;61.20;;;29.40;;
79365;SDS011;68833;53.160;17.920;2023-12-20T07:27:33;26.00;;;11.90;;
79365;SDS011;68833;53.160;17.920;2023-12-20T07:30:00;9.60;;;6.60;;
79365;SDS011;68833;53.160;17.920;2023-12-20T07:32:27;12.80;;;6.70;;
79365;SDS011;68833;53.160;17.920;2023-12-20T07:34:55;9.40;;;6.10;;
79365;SDS011;68833;53.160;17.920;2023-12-20T07:37:22;22.60;;;11.80;;
79365;SDS011;68833;53.160;17.920;2023-12-20T07:39:49;15.80;;;7.70;;
79365;SDS011;68833;53.160;17.920;2023-12-20T07:42:19;13.90;;;7.30;;
79365;SDS011;68833;53.160;17.920;2023-12-20T07:44:48;16.70;;;9.50;;
79365;SDS011;68833;53.160;17.920;2023-12-20T07:47:15;10.80;;;6.70;;
79365;SDS011;68833;53.160;17.920;2023-12-20T07:49:48;5.20;;;3.80;;
79365;SDS011;68833;53.160;17.920;2023-12-20T07:52:15;14.70;;;6.00;;
79365;SDS011;68833;53.160;17.920;2023-12-20T07:54:43;15.00;;;5.60;;
79365;SDS011;68833;53.160;17.920;2023-12-20T07:57:12;8.50;;;5.30;;
79365;SDS011;68833;53.160;17.920;2023-12-20T07:59:39;11.10;;;5.70;;
79365;SDS011;68833;53.160;17.920;2023-12-20T08:02:06;15.30;;;7.00;;
79365;SDS011;68833;53.160;17.920;2023-12-20T08:04:33;17.90;;;7.60;;
79365;SDS011;68833;53.160;17.920;2023-12-20T08:09:30;21.70;;;8.80;;
79365;SDS011;68833;53.160;17.920;2023-12-20T08:11:58;29.50;;;12.40;;
79365;SDS011;68833;53.160;17.920;2023-12-20T08:14:28;48.50;;;20.00;;
79365;SDS011;68833;53.160;17.920;2023-12-20T08:16:58;31.20;;;12.60;;
79365;SDS011;68833;53.160;17.920;2023-12-20T08:19:25;36.30;;;14.10;;
79365;SDS011;68833;53.160;17.920;2023-12-20T08:21:52;48.40;;;19.10;;
79365;SDS011;68833;53.160;17.920;2023-12-20T08:24:19;47.70;;;20.80;;
79365;SDS011;68833;53.160;17.920;2023-12-20T08:26:46;20.80;;;9.10;;
79365;SDS011;68833;53.160;17.920;2023-12-20T08:29:13;19.00;;;8.40;;
79365;SDS011;68833;53.160;17.920;2023-12-20T08:31:41;12.10;;;7.20;;
79365;SDS011;68833;53.160;17.920;2023-12-20T08:34:08;13.90;;;6.70;;
79365;SDS011;68833;53.160;17.920;2023-12-20T08:36:35;17.20;;;9.40;;
79365;SDS011;68833;53.160;17.920;2023-12-20T08:39:02;9.80;;;5.80;;
79365;SDS011;68833;53.160;17.920;2023-12-20T08:41:33;6.40;;;3.90;;
79365;SDS011;68833;53.160;17.920;2023-12-20T08:44:01;7.50;;;4.70;;
79365;SDS011;68833;53.160;17.920;2023-12-20T08:46:28;9.00;;;3.90;;
79365;SDS011;68833;53.160;17.920;2023-12-20T08:48:55;12.10;;;4.10;;
79365;SDS011;68833;53.160;17.920;2023-12-20T08:51:22;4.60;;;2.80;;
79365;SDS011;68833;53.160;17.920;2023-12-20T08:56:19;6.60;;;4.20;;
79365;SDS011;68833;53.160;17.920;2023-12-20T08:58:46;7.60;;;4.40;;
79365;SDS011;68833;53.160;17.920;2023-12-20T09:01:14;9.10;;;5.40;;
79365;SDS011;68833;53.160;17.920;2023-12-20T09:03:41;7.00;;;3.50;;
79365;SDS011;68833;53.160;17.920;2023-12-20T09:06:08;6.00;;;2.20;;
79365;SDS011;68833;53.160;17.920;2023-12-20T09:08:35;3.70;;;2.10;;
79365;SDS011;68833;53.160;17.920;2023-12-20T09:11:02;8.40;;;3.40;;
79365;SDS011;68833;53.160;17.920;2023-12-20T09:13:30;11.20;;;5.60;;
79365;SDS011;68833;53.160;17.920;2023-12-20T09:15:58;5.10;;;2.50;;
79365;SDS011;68833;53.160;17.920;2023-12-20T09:18:25;11.00;;;4.60;;
79365;SDS011;68833;53.160;17.920;2023-12-20T09:20:53;6.20;;;3.20;;
79365;SDS011;68833;53.160;17.920;2023-12-20T09:23:20;7.60;;;3.50;;
79365;SDS011;68833;53.160;17.920;2023-12-20T09:25:47;7.80;;;3.30;;
79365;SDS011;68833;53.160;17.920;2023-12-20T09:28:14;6.40;;;3.70;;
79365;SDS011;68833;53.160;17.920;2023-12-20T09:30:41;11.30;;;3.70;;
79365;SDS011;68833;53.160;17.920;2023-12-20T09:33:09;9.00;;;3.40;;
79365;SDS011;68833;53.160;17.920;2023-12-20T09:35:36;6.60;;;3.30;;
79365;SDS011;68833;53.160;17.920;2023-12-20T09:38:03;9.00;;;3.80;;
79365;SDS011;68833;53.160;17.920;2023-12-20T09:40:32;8.40;;;3.60;;
79365;SDS011;68833;53.160;17.920;2023-12-20T09:43:03;7.80;;;3.50;;
79365;SDS011;68833;53.160;17.920;2023-12-20T09:45:32;4.50;;;2.80;;
79365;SDS011;68833;53.160;17.920;2023-12-20T09:48:00;7.70;;;2.90;;
79365;SDS011;68833;53.160;17.920;2023-12-20T09:50:27;7.20;;;3.60;;
79365;SDS011;68833;53.160;17.920;2023-12-20T09:52:57;6.40;;;3.00;;
79365;SDS011;68833;53.160;17.920;2023-12-20T09:55:26;5.70;;;2.60;;
79365;SDS011;68833;53.160;17.920;2023-12-20T09:57:56;5.90;;;2.60;;
79365;SDS011;68833;53.160;17.920;2023-12-20T10:00:23;5.90;;;3.10;;
79365;SDS011;68833;53.160;17.920;2023-12-20T10:02:57;6.40;;;3.90;;
79365;SDS011;68833;53.160;17.920;2023-12-20T10:05:27;13.30;;;5.40;;
79365;SDS011;68833;53.160;17.920;2023-12-20T10:10:23;15.40;;;8.60;;
79365;SDS011;68833;53.160;17.920;2023-12-20T10:13:01;8.40;;;4.60;;
79365;SDS011;68833;53.160;17.920;2023-12-20T10:15:35;4.10;;;2.50;;
79365;SDS011;68833;53.160;17.920;2023-12-20T10:18:04;4.40;;;2.70;;
79365;SDS011;68833;53.160;17.920;2023-12-20T10:20:31;7.80;;;3.00;;
79365;SDS011;68833;53.160;17.920;2023-12-20T10:23:02;8.30;;;4.50;;
79365;SDS011;68833;53.160;17.920;2023-12-20T10:25:31;8.00;;;2.60;;
79365;SDS011;68833;53.160;17.920;2023-12-20T10:28:09;4.60;;;3.10;;
79365;SDS011;68833;53.160;17.920;2023-12-20T10:30:44;7.30;;;3.60;;
79365;SDS011;68833;53.160;17.920;2023-12-20T10:33:12;4.10;;;2.60;;
79365;SDS011;68833;53.160;17.920;2023-12-20T10:35:39;6.90;;;3.60;;
79365;SDS011;68833;53.160;17.920;2023-12-20T10:38:09;6.20;;;3.90;;
79365;SDS011;68833;53.160;17.920;2023-12-20T10:40:38;6.50;;;3.20;;
79365;SDS011;68833;53.160;17.920;2023-12-20T10:43:05;6.10;;;3.70;;
79365;SDS011;68833;53.160;17.920;2023-12-20T10:45:32;6.10;;;4.00;;
79365;SDS011;68833;53.160;17.920;2023-12-20T10:48:01;9.00;;;5.10;;
79365;SDS011;68833;53.160;17.920;2023-12-20T10:50:29;7.40;;;4.20;;
79365;SDS011;68833;53.160;17.920;2023-12-20T10:52:58;6.70;;;3.60;;
79365;SDS011;68833;53.160;17.920;2023-12-20T10:55:25;9.60;;;3.80;;
79365;SDS011;68833;53.160;17.920;2023-12-20T10:58:11;9.60;;;5.00;;
79365;SDS011;68833;53.160;17.920;2023-12-20T11:03:36;6.10;;;2.90;;
79365;SDS011;68833;53.160;17.920;2023-12-20T11:14:51;7.80;;;3.30;;
79365;SDS011;68833;53.160;17.920;2023-12-20T11:17:29;4.30;;;2.70;;
79365;SDS011;68833;53.160;17.920;2023-12-20T11:20:04;4.80;;;2.50;;
79365;SDS011;68833;53.160;17.920;2023-12-20T11:22:32;7.90;;;4.40;;
79365;SDS011;68833;53.160;17.920;2023-12-20T11:25:05;7.10;;;4.00;;
79365;SDS011;68833;53.160;17.920;2023-12-20T11:27:41;8.70;;;5.00;;
79365;SDS011;68833;53.160;17.920;2023-12-20T11:30:12;7.20;;;3.50;;
79365;SDS011;68833;53.160;17.920;2023-12-20T11:32:43;7.00;;;4.30;;
79365;SDS011;68833;53.160;17.920;2023-12-20T11:37:40;6.80;;;3.60;;
79365;SDS011;68833;53.160;17.920;2023-12-20T11:40:18;8.60;;;2.80;;
79365;SDS011;68833;53.160;17.920;2023-12-20T11:42:49;7.80;;;3.20;;
79365;SDS011;68833;53.160;17.920;2023-12-20T11:45:22;5.20;;;2.20;;
79365;SDS011;68833;53.160;17.920;2023-12-20T11:47:51;7.60;;;3.00;;
79365;SDS011;68833;53.160;17.920;2023-12-20T11:50:24;6.50;;;3.60;;
79365;SDS011;68833;53.160;17.920;2023-12-20T11:52:52;5.90;;;3.30;;
79365;SDS011;68833;53.160;17.920;2023-12-20T11:55:21;6.00;;;3.70;;
79365;SDS011;68833;53.160;17.920;2023-12-20T11:57:52;7.90;;;3.30;;
79365;SDS011;68833;53.160;17.920;2023-12-20T12:00:19;8.90;;;3.90;;
79365;SDS011;68833;53.160;17.920;2023-12-20T12:02:57;3.50;;;2.00;;
79365;SDS011;68833;53.160;17.920;2023-12-20T12:05:26;4.80;;;2.10;;
79365;SDS011;68833;53.160;17.920;2023-12-20T12:07:53;5.20;;;2.10;;
79365;SDS011;68833;53.160;17.920;2023-12-20T12:10:21;5.10;;;2.40;;
79365;SDS011;68833;53.160;17.920;2023-12-20T12:12:49;6.70;;;2.80;;
79365;SDS011;68833;53.160;17.920;2023-12-20T12:15:16;4.70;;;2.00;;
79365;SDS011;68833;53.160;17.920;2023-12-20T12:17:43;5.80;;;2.20;;
79365;SDS011;68833;53.160;17.920;2023-12-20T12:20:11;3.90;;;2.00;;
79365;SDS011;68833;53.160;17.920;2023-12-20T12:22:39;5.30;;;2.60;;
79365;SDS011;68833;53.160;17.920;2023-12-20T12:25:09;4.70;;;2.90;;
79365;SDS011;68833;53.160;17.920;2023-12-20T12:27:41;6.80;;;2.70;;
79365;SDS011;68833;53.160;17.920;2023-12-20T12:30:08;4.30;;;3.00;;
79365;SDS011;68833;53.160;17.920;2023-12-20T12:32:36;6.40;;;2.30;;
79365;SDS011;68833;53.160;17.920;2023-12-20T12:35:05;4.50;;;2.10;;
79365;SDS011;68833;53.160;17.920;2023-12-20T12:37:37;2.90;;;2.30;;
79365;SDS011;68833;53.160;17.920;2023-12-20T12:40:15;2.40;;;1.80;;
79365;SDS011;68833;53.160;17.920;2023-12-20T12:42:43;5.80;;;2.40;;
79365;SDS011;68833;53.160;17.920;2023-12-20T12:45:12;3.70;;;1.80;;
79365;SDS011;68833;53.160;17.920;2023-12-20T12:47:39;3.60;;;1.90;;
79365;SDS011;68833;53.160;17.920;2023-12-20T12:50:07;4.90;;;2.00;;
79365;SDS011;68833;53.160;17.920;2023-12-20T12:52:35;4.20;;;2.50;;
79365;SDS011;68833;53.160;17.920;2023-12-20T12:55:02;4.10;;;2.70;;
79365;SDS011;68833;53.160;17.920;2023-12-20T12:57:30;4.10;;;1.70;;
79365;SDS011;68833;53.160;17.920;2023-12-20T12:59:57;5.60;;;3.40;;
79365;SDS011;68833;53.160;17.920;2023-12-20T13:02:25;5.60;;;3.90;;
79365;SDS011;68833;53.160;17.920;2023-12-20T13:04:52;3.40;;;2.20;;
79365;SDS011;68833;53.160;17.920;2023-12-20T13:07:19;4.40;;;3.30;;
79365;SDS011;68833;53.160;17.920;2023-12-20T13:09:46;4.30;;;2.60;;
79365;SDS011;68833;53.160;17.920;2023-12-20T13:12:13;5.50;;;4.40;;
79365;SDS011;68833;53.160;17.920;2023-12-20T13:14:40;5.80;;;3.30;;
79365;SDS011;68833;53.160;17.920;2023-12-20T13:17:07;6.40;;;4.00;;
79365;SDS011;68833;53.160;17.920;2023-12-20T13:19:34;3.60;;;1.90;;
79365;SDS011;68833;53.160;17.920;2023-12-20T13:22:02;2.90;;;2.50;;
79365;SDS011;68833;53.160;17.920;2023-12-20T13:24:34;4.50;;;2.70;;
79365;SDS011;68833;53.160;17.920;2023-12-20T13:27:02;5.60;;;3.50;;
79365;SDS011;68833;53.160;17.920;2023-12-20T13:29:29;30.40;;;10.40;;
79365;SDS011;68833;53.160;17.920;2023-12-20T13:31:56;28.90;;;12.30;;
79365;SDS011;68833;53.160;17.920;2023-12-20T13:34:26;16.10;;;6.70;;
79365;SDS011;68833;53.160;17.920;2023-12-20T13:36:53;27.60;;;13.20;;
79365;SDS011;68833;53.160;17.920;2023-12-20T13:39:25;23.50;;;9.70;;
79365;SDS011;68833;53.160;17.920;2023-12-20T13:41:52;25.80;;;14.80;;
79365;SDS011;68833;53.160;17.920;2023-12-20T13:44:19;13.30;;;5.40;;
79365;SDS011;68833;53.160;17.920;2023-12-20T13:46:47;16.30;;;8.30;;
79365;SDS011;68833;53.160;17.920;2023-12-20T13:49:16;7.80;;;3.70;;
79365;SDS011;68833;53.160;17.920;2023-12-20T13:51:43;6.00;;;2.70;;
79365;SDS011;68833;53.160;17.920;2023-12-20T13:54:10;9.30;;;4.50;;
79365;SDS011;68833;53.160;17.920;2023-12-20T13:59:19;6.80;;;3.00;;
79365;SDS011;68833;53.160;17.920;2023-12-20T14:01:47;6.40;;;3.40;;
79365;SDS011;68833;53.160;17.920;2023-12-20T14:04:15;5.60;;;2.90;;
79365;SDS011;68833;53.160;17.920;2023-12-20T14:06:42;4.20;;;2.20;;
79365;SDS011;68833;53.160;17.920;2023-12-20T14:09:09;5.40;;;3.10;;
79365;SDS011;68833;53.160;17.920;2023-12-20T14:11:38;9.10;;;3.30;;
79365;SDS011;68833;53.160;17.920;2023-12-20T14:14:08;6.10;;;2.70;;
79365;SDS011;68833;53.160;17.920;2023-12-20T14:16:35;4.40;;;3.00;;
79365;SDS011;68833;53.160;17.920;2023-12-20T14:19:02;6.90;;;3.90;;
79365;SDS011;68833;53.160;17.920;2023-12-20T14:21:30;5.80;;;2.90;;
79365;SDS011;68833;53.160;17.920;2023-12-20T14:23:57;10.00;;;4.30;;
79365;SDS011;68833;53.160;17.920;2023-12-20T14:26:25;5.50;;;3.10;;
79365;SDS011;68833;53.160;17.920;2023-12-20T14:28:54;7.50;;;3.80;;
79365;SDS011;68833;53.160;17.920;2023-12-20T14:31:21;6.40;;;3.10;;
79365;SDS011;68833;53.160;17.920;2023-12-20T14:33:51;7.70;;;3.70;;
79365;SDS011;68833;53.160;17.920;2023-12-20T14:36:21;5.20;;;2.40;;
79365;SDS011;68833;53.160;17.920;2023-12-20T14:38:48;8.30;;;4.20;;
79365;SDS011;68833;53.160;17.920;2023-12-20T14:41:19;9.60;;;4.00;;
79365;SDS011;68833;53.160;17.920;2023-12-20T14:43:47;11.40;;;6.10;;
79365;SDS011;68833;53.160;17.920;2023-12-20T14:46:14;11.30;;;7.80;;
79365;SDS011;68833;53.160;17.920;2023-12-20T14:48:43;13.30;;;7.90;;
79365;SDS011;68833;53.160;17.920;2023-12-20T14:51:21;11.70;;;6.20;;
79365;SDS011;68833;53.160;17.920;2023-12-20T14:53:49;12.50;;;6.10;;
79365;SDS011;68833;53.160;17.920;2023-12-20T14:56:26;11.90;;;4.70;;
79365;SDS011;68833;53.160;17.920;2023-12-20T14:58:53;12.40;;;4.80;;
79365;SDS011;68833;53.160;17.920;2023-12-20T15:01:20;9.70;;;4.00;;
79365;SDS011;68833;53.160;17.920;2023-12-20T15:03:48;8.70;;;7.00;;
79365;SDS011;68833;53.160;17.920;2023-12-20T15:06:15;9.70;;;5.70;;
79365;SDS011;68833;53.160;17.920;2023-12-20T15:08:42;13.50;;;7.10;;
79365;SDS011;68833;53.160;17.920;2023-12-20T15:11:10;11.40;;;5.30;;
79365;SDS011;68833;53.160;17.920;2023-12-20T15:13:38;6.10;;;3.00;;
79365;SDS011;68833;53.160;17.920;2023-12-20T15:16:06;8.60;;;3.80;;
79365;SDS011;68833;53.160;17.920;2023-12-20T15:18:38;7.70;;;3.40;;
79365;SDS011;68833;53.160;17.920;2023-12-20T15:21:05;4.30;;;2.50;;
79365;SDS011;68833;53.160;17.920;2023-12-20T15:23:36;9.50;;;4.50;;
79365;SDS011;68833;53.160;17.920;2023-12-20T15:26:03;4.50;;;2.00;;
79365;SDS011;68833;53.160;17.920;2023-12-20T15:28:34;8.30;;;3.00;;
79365;SDS011;68833;53.160;17.920;2023-12-20T15:31:04;5.30;;;1.80;;
79365;SDS011;68833;53.160;17.920;2023-12-20T15:33:31;7.50;;;2.30;;
79365;SDS011;68833;53.160;17.920;2023-12-20T15:36:01;6.30;;;2.60;;